createdAt,value
2018-07-16T17:35:57.643Z,96193.96
2018-07-16T17:38:27.708Z,96191.73
2018-07-16T17:40:57.645Z,96193.77
2018-07-16T17:43:27.584Z,96196.73
2018-07-16T17:45:57.456Z,96196.30
2018-07-16T17:48:27.171Z,96197.66
2018-07-16T17:50:57.106Z,96205.16
2018-07-16T17:53:26.750Z,96203.59
2018-07-16T17:55:56.465Z,96205.06
2018-07-16T17:58:26.112Z,96210.32
2018-07-16T18:00:55.748Z,96205.11
2018-07-16T18:03:27.454Z,96212.20
2018-07-16T18:05:57.064Z,96205.24
2018-07-16T18:08:26.686Z,96202.02
2018-07-16T18:10:56.293Z,96203.00
2018-07-16T18:13:26.021Z,96207.60
2018-07-16T18:15:55.643Z,96208.69
2018-07-16T18:18:25.256Z,96208.61
2018-07-16T18:20:54.994Z,96207.89
2018-07-16T18:23:24.718Z,96217.81
2018-07-16T18:25:54.315Z,96219.86
2018-07-16T18:28:23.952Z,96222.50
2018-07-16T18:30:53.956Z,96219.91
2018-07-16T18:33:23.608Z,96214.66
2018-07-16T18:35:53.122Z,96216.77
2018-07-16T18:38:22.687Z,96219.27
2018-07-16T18:40:52.350Z,96216.87
2018-07-16T18:43:22.143Z,96219.48
2018-07-16T18:45:51.737Z,96228.34
2018-07-16T18:48:21.456Z,96229.98
2018-07-16T18:50:51.128Z,96234.38
2018-07-16T18:53:21.792Z,96241.19
2018-07-16T18:55:52.311Z,96247.01
2018-07-16T18:58:21.944Z,96254.23
2018-07-16T19:00:51.536Z,96263.30
2018-07-16T19:03:21.308Z,96262.31
2018-07-16T19:05:50.940Z,96265.02
2018-07-16T19:08:20.533Z,96268.20
2018-07-16T19:10:50.116Z,96265.87
2018-07-16T19:13:20.206Z,96270.08
2018-07-16T19:15:49.768Z,96273.37
2018-07-16T19:18:19.387Z,96277.68
2018-07-16T19:20:48.984Z,96285.58
2018-07-16T19:23:18.551Z,96284.73
2018-07-16T19:25:48.175Z,96288.48
2018-07-16T19:28:18.611Z,96288.20
2018-07-16T19:30:48.224Z,96295.40
2018-07-16T19:33:17.818Z,96298.86
2018-07-16T19:35:47.415Z,96296.37
2018-07-16T19:38:16.991Z,96303.34
2018-07-16T19:40:46.553Z,96301.94
2018-07-16T19:43:16.135Z,96305.42
2018-07-16T19:45:45.796Z,96309.45
2018-07-16T19:48:15.415Z,96309.99
2018-07-16T19:50:45.069Z,96311.94
2018-07-16T19:53:14.688Z,96316.70
2018-07-16T19:55:44.249Z,96325.73
2018-07-16T19:58:13.842Z,96320.26
2018-07-16T20:00:43.400Z,96328.86
2018-07-16T20:03:13.004Z,96329.61
2018-07-16T20:05:42.656Z,96325.64
2018-07-16T20:08:12.276Z,96326.73
2018-07-16T20:10:42.057Z,96326.17
2018-07-16T20:13:11.720Z,96335.95
2018-07-16T20:15:41.551Z,96337.34
2018-07-16T20:18:11.641Z,96334.92
2018-07-16T20:20:52.719Z,96331.66
2018-07-16T20:23:24.456Z,96332.92
2018-07-16T20:25:55.666Z,96333.13
2018-07-16T20:28:25.595Z,96335.48
2018-07-16T20:30:56.181Z,96338.61
2018-07-16T20:33:25.757Z,96333.69
2018-07-16T20:35:55.342Z,96340.77
2018-07-16T20:38:25.109Z,96345.94
2018-07-16T20:40:54.779Z,96346.97
2018-07-16T20:43:24.401Z,96350.30
2018-07-16T20:45:54.008Z,96350.59
2018-07-16T20:48:23.588Z,96347.94
2018-07-16T20:50:53.257Z,96353.53
2018-07-16T20:53:22.915Z,96352.64
2018-07-16T20:55:52.497Z,96347.60
2018-07-16T20:58:22.107Z,96356.91
2018-07-16T21:00:51.755Z,96350.59
2018-07-16T21:03:21.356Z,96351.39
2018-07-16T21:05:50.982Z,96356.83
2018-07-16T21:08:20.557Z,96357.91
2018-07-16T21:10:50.412Z,96353.86
2018-07-16T21:13:19.981Z,96356.95
2018-07-16T21:15:49.536Z,96359.56
2018-07-16T21:18:19.104Z,96359.42
2018-07-16T21:20:48.712Z,96359.46
2018-07-16T21:23:18.371Z,96363.41
2018-07-16T21:25:48.302Z,96357.28
2018-07-16T21:28:17.929Z,96362.19
2018-07-16T21:30:47.455Z,96357.50
2018-07-16T21:33:17.012Z,96356.23
2018-07-16T21:35:46.641Z,96355.64
2018-07-16T21:38:16.223Z,96353.30
2018-07-16T21:40:46.054Z,96356.57
2018-07-16T21:43:15.505Z,96358.80
2018-07-16T21:45:45.182Z,96358.65
2018-07-16T21:48:14.830Z,96353.00
2018-07-16T21:50:44.407Z,96352.67
2018-07-16T21:53:13.963Z,96353.22
2018-07-16T21:55:43.540Z,96355.15
2018-07-16T21:58:13.128Z,96355.38
2018-07-16T22:00:42.727Z,96355.07
2018-07-16T22:03:12.439Z,96353.84
2018-07-16T22:05:42.389Z,96356.77
2018-07-16T22:08:11.977Z,96359.67
2018-07-16T22:10:41.601Z,96355.02
2018-07-16T22:13:11.196Z,96355.02
2018-07-16T22:15:40.786Z,96351.72
2018-07-16T22:18:10.375Z,96355.34
2018-07-16T22:20:40.129Z,96358.46
2018-07-16T22:23:09.700Z,96356.16
2018-07-16T22:25:39.276Z,96362.77
2018-07-16T22:28:08.833Z,96356.95
2018-07-16T22:30:38.559Z,96359.23
2018-07-16T22:33:08.111Z,96365.97
2018-07-16T22:35:37.663Z,96367.44
2018-07-16T22:38:07.204Z,96372.87
2018-07-16T22:40:36.827Z,96378.81
2018-07-16T22:43:06.383Z,96380.41
2018-07-16T22:45:36.072Z,96389.44
2018-07-16T22:48:05.818Z,96388.08
2018-07-16T22:50:35.394Z,96387.75
2018-07-16T22:53:04.966Z,96392.11
2018-07-16T22:55:34.546Z,96394.70
2018-07-16T22:58:04.132Z,96397.63
2018-07-16T23:00:34.152Z,96397.44
2018-07-16T23:03:03.766Z,96398.44
2018-07-16T23:05:33.399Z,96401.20
2018-07-16T23:08:02.944Z,96396.23
2018-07-16T23:10:32.522Z,96392.69
2018-07-16T23:13:02.071Z,96396.06
2018-07-16T23:15:31.624Z,96396.06
2018-07-16T23:18:01.201Z,96399.08
2018-07-16T23:20:30.764Z,96396.94
2018-07-16T23:23:00.324Z,96394.92
2018-07-16T23:25:29.917Z,96395.47
2018-07-16T23:27:59.489Z,96398.97
2018-07-16T23:30:29.114Z,96405.91
2018-07-16T23:32:58.663Z,96404.66
2018-07-16T23:35:28.280Z,96405.67
2018-07-16T23:37:58.836Z,96410.09
2018-07-16T23:40:28.409Z,96412.23
2018-07-16T23:42:57.967Z,96413.80
2018-07-16T23:45:27.539Z,96409.44
2018-07-16T23:47:57.108Z,96416.14
2018-07-16T23:50:26.767Z,96413.66
2018-07-16T23:52:56.272Z,96412.97
2018-07-16T23:55:25.832Z,96407.40
2018-07-16T23:57:55.401Z,96406.25
